Time;durP1;ratioP1;P1;durP2;ratioP2;P2;SDS_P1;SDS_P2;PMS_P1;PMS_P2;Temp;Humidity;BMP_temperature;BMP_pressure;BME280_temperature;BME280_humidity;BME280_pressure;Samples;Min_cycle;Max_cycle;Signal;HPM_P1;HPM_P2
2022/04/05 00:10:46;;;;;;;14.95;10.13;;;;;;;4.97;100.00;97989.73;738855;1153;115097;-69
2022/04/05 00:25:48;;;;;;;21.98;12.50;;;;;;;5.05;100.00;97975.95;739096;1155;115653;-70
2022/04/05 00:40:51;;;;;;;44.35;22.40;;;;;;;5.13;100.00;97949.99;739092;1155;116047;-70
2022/04/05 00:55:54;;;;;;;170.28;51.73;;;;;;;5.18;100.00;97920.94;739083;1153;115858;-71
2022/04/05 01:10:59;;;;;;;86.07;33.50;;;;;;;5.26;100.00;97903.56;738945;1153;116177;-70
2022/04/05 01:26:01;;;;;;;100.68;36.33;;;;;;;5.42;100.00;97915.77;738788;1155;115889;-70
2022/04/05 01:41:04;;;;;;;108.20;34.28;;;;;;;5.68;100.00;97899.23;739138;1155;115295;-72
2022/04/05 01:56:06;;;;;;;71.07;29.77;;;;;;;5.81;100.00;97886.55;739460;1155;115764;-71
2022/04/05 02:11:08;;;;;;;28.88;14.58;;;;;;;5.99;100.00;97890.78;738746;1153;114308;-71
2022/04/05 02:26:11;;;;;;;98.10;31.33;;;;;;;6.05;100.00;97873.72;740716;1155;115584;-72
2022/04/05 02:41:13;;;;;;;21.83;10.43;;;;;;;6.13;100.00;97879.70;739079;1153;115772;-71
2022/04/05 02:56:15;;;;;;;13.10;6.45;;;;;;;6.32;100.00;97898.55;738915;1152;115546;-71
2022/04/05 03:11:17;;;;;;;8.23;3.40;;;;;;;5.20;100.00;97935.41;739376;1152;114854;-70
2022/04/05 03:26:22;;;;;;;9.73;3.40;;;;;;;5.03;100.00;97947.53;739284;1153;115273;-71
2022/04/05 03:41:25;;;;;;;7.60;3.53;;;;;;;5.10;100.00;97960.72;739723;1153;115012;-72
2022/04/05 03:56:27;;;;;;;7.98;2.73;;;;;;;5.05;100.00;97962.97;738957;1155;114721;-70
2022/04/05 04:11:29;;;;;;;8.70;3.98;;;;;;;5.13;100.00;97969.02;739563;1153;115058;-72
2022/04/05 04:26:31;;;;;;;23.75;9.53;;;;;;;5.11;99.76;97963.15;739722;1152;114561;-71
2022/04/05 04:41:33;;;;;;;14.18;5.83;;;;;;;5.18;96.57;97971.13;739129;1153;115382;-70
2022/04/05 04:56:35;;;;;;;14.35;6.55;;;;;;;5.39;92.99;97985.51;739278;1155;114717;-78
2022/04/05 05:11:37;;;;;;;77.40;27.77;;;;;;;5.43;87.19;97998.02;739565;1153;115440;-71
2022/04/05 05:26:40;;;;;;;59.95;21.55;;;;;;;5.75;81.89;97996.45;739644;1153;115135;-72
2022/04/05 05:41:42;;;;;;;21.08;9.05;;;;;;;5.88;78.69;98016.81;740134;1152;115398;-72
2022/04/05 05:56:44;;;;;;;19.18;7.43;;;;;;;6.01;76.95;98024.19;740112;1153;114314;-72
2022/04/05 06:11:46;;;;;;;18.73;5.70;;;;;;;6.09;74.87;98039.80;739462;1153;115537;-74
2022/04/05 06:26:48;;;;;;;17.25;4.90;;;;;;;6.52;73.71;98070.92;739932;1155;114634;-75
2022/04/05 06:41:51;;;;;;;15.20;5.35;;;;;;;6.81;71.97;98098.27;740310;1155;114321;-75
2022/04/05 06:56:53;;;;;;;12.93;3.63;;;;;;;7.15;70.44;98100.66;740355;1153;114617;-75
2022/04/05 07:11:55;;;;;;;15.83;4.73;;;;;;;7.07;70.37;98126.72;740089;1153;114787;-76
2022/04/05 07:27:00;;;;;;;79.07;24.60;;;;;;;7.20;68.35;98160.12;740107;1152;114404;-75
2022/04/05 07:42:03;;;;;;;42.40;15.95;;;;;;;7.45;68.97;98166.09;740503;1153;115475;-75
2022/04/05 07:57:08;;;;;;;11.08;4.03;;;;;;;7.02;68.32;98180.34;740757;1155;114675;-80
2022/04/05 08:12:11;;;;;;;5.43;2.43;;;;;;;6.91;68.77;98223.20;740017;1155;113960;-79
2022/04/05 08:27:13;;;;;;;6.33;2.80;;;;;;;7.10;71.00;98256.78;740788;1155;114384;-80
2022/04/05 08:42:18;;;;;;;8.13;3.00;;;;;;;6.77;74.94;98293.23;739909;1153;114536;-79
2022/04/05 08:57:21;;;;;;;6.10;2.83;;;;;;;7.82;75.83;98317.88;740568;1155;115284;-80
2022/04/05 09:12:26;;;;;;;26.45;10.23;;;;;;;7.62;73.42;98333.88;739940;1153;114301;-81
2022/04/05 09:27:54;;;;;;;19.53;8.90;;;;;;;8.14;70.60;98348.36;739745;1155;114006;-79
2022/04/05 09:43:08;;;;;;;8.23;4.63;;;;;;;8.65;63.78;98350.65;740656;1153;114300;-75
2022/04/05 09:58:11;;;;;;;20.13;10.13;;;;;;;8.31;64.44;98374.42;739782;1153;114548;-71
2022/04/05 10:13:14;;;;;;;7.55;2.63;;;;;;;8.99;64.04;98399.20;739947;1155;114923;-74
2022/04/05 10:28:22;;;;;;;12.53;5.90;;;;;;;8.72;66.64;98410.91;739974;1153;115384;-74
2022/04/05 10:43:24;;;;;;;23.50;13.23;;;;;;;9.10;67.25;98452.13;740050;1153;115041;-72
2022/04/05 10:58:28;;;;;;;28.93;13.90;;;;;;;6.54;70.94;98527.47;739924;1155;115690;-74
2022/04/05 11:13:39;;;;;;;14.10;7.30;;;;;;;6.44;76.19;98522.36;739736;1155;114612;-77
2022/04/05 11:28:46;;;;;;;7.93;3.88;;;;;;;6.86;78.19;98541.67;740297;1152;115083;-75
2022/04/05 11:44:00;;;;;;;15.83;7.38;;;;;;;6.74;73.02;98574.99;740606;1154;114894;-75
2022/04/05 11:59:05;;;;;;;13.58;4.78;;;;;;;7.16;78.16;98561.23;740637;1153;115992;-75
2022/04/05 12:14:11;;;;;;;5.68;2.95;;;;;;;8.71;75.52;98579.23;740942;1153;115544;-75
2022/04/05 12:29:15;;;;;;;30.98;13.10;;;;;;;9.12;71.29;98597.47;740701;1153;114643;-75
2022/04/05 12:44:22;;;;;;;25.78;12.05;;;;;;;5.98;72.90;98698.67;741017;1155;114910;-75
2022/04/05 12:59:26;;;;;;;6.93;3.70;;;;;;;4.31;77.99;98667.70;741121;1153;115665;-74
2022/04/05 13:14:30;;;;;;;15.40;9.10;;;;;;;6.54;80.59;98664.74;740481;1155;115310;-74
2022/04/05 13:29:34;;;;;;;7.95;4.05;;;;;;;8.71;80.00;98662.89;740718;1153;114778;-75
2022/04/05 13:44:38;;;;;;;13.13;8.77;;;;;;;8.40;74.44;98689.59;739986;1155;113652;-75
2022/04/05 13:59:42;;;;;;;52.93;19.05;;;;;;;7.59;75.51;98701.38;739999;1153;114534;-75
2022/04/05 14:14:45;;;;;;;116.65;41.13;;;;;;;5.68;77.69;98765.58;740450;1153;114975;-74
2022/04/05 14:29:47;;;;;;;78.45;28.88;;;;;;;7.04;81.46;98741.58;740120;1155;115255;-75
2022/04/05 14:44:50;;;;;;;80.07;34.13;;;;;;;7.52;76.86;98732.47;739930;1153;114132;-74
2022/04/05 15:00:14;;;;;;;37.03;17.55;;;;;;;12.95;70.67;98746.08;740428;1154;114927;-71
2022/04/05 15:15:20;;;;;;;29.25;12.80;;;;;;;9.56;66.18;98760.30;741474;1155;115700;-72
2022/04/05 15:30:24;;;;;;;19.83;10.95;;;;;;;9.71;66.82;98773.53;740568;1153;115311;-76
2022/04/05 15:45:27;;;;;;;6.80;4.23;;;;;;;12.31;63.14;98774.73;740878;1155;115323;-72
2022/04/05 16:00:30;;;;;;;7.78;4.43;;;;;;;13.21;59.82;98777.11;741370;1154;114943;-73
2022/04/05 16:15:33;;;;;;;27.35;12.23;;;;;;;10.55;58.01;98770.49;740539;1154;114855;-72
2022/04/05 16:30:36;;;;;;;75.45;21.75;;;;;;;7.68;60.60;98790.97;740446;1153;115104;-76
2022/04/05 16:45:39;;;;;;;33.07;12.80;;;;;;;6.98;63.13;98790.75;739652;1153;114830;-76
2022/04/05 17:00:42;;;;;;;21.90;10.38;;;;;;;6.75;64.21;98785.14;740598;1152;114859;-78
2022/04/05 17:15:46;;;;;;;38.18;15.65;;;;;;;6.29;65.27;98794.72;740260;1153;115075;-77
2022/04/05 17:30:48;;;;;;;102.80;42.80;;;;;;;6.03;66.98;98797.98;739501;1153;114831;-77
2022/04/05 17:45:51;;;;;;;848.85;325.95;;;;;;;5.57;67.48;98804.75;739397;1152;114997;-76
2022/04/05 18:00:54;;;;;;;78.25;37.50;;;;;;;5.08;68.21;98810.82;740516;1153;115998;-76
2022/04/05 18:16:05;;;;;;;45.30;21.98;;;;;;;5.05;68.93;98818.87;739672;1153;114458;-76
2022/04/05 18:31:10;;;;;;;236.80;78.03;;;;;;;4.65;71.00;98835.36;739870;1155;114833;-77
2022/04/05 18:46:13;;;;;;;81.80;36.20;;;;;;;4.49;71.87;98847.06;740039;1153;115003;-72
2022/04/05 19:01:16;;;;;;;62.45;28.15;;;;;;;4.39;73.98;98846.20;740669;1153;114865;-73
2022/04/05 19:16:19;;;;;;;92.50;33.63;;;;;;;4.61;73.39;98833.98;740025;1153;115524;-72
2022/04/05 19:31:21;;;;;;;78.13;31.33;;;;;;;4.80;74.63;98828.84;739761;1153;115044;-72
2022/04/05 19:46:24;;;;;;;64.55;29.53;;;;;;;4.99;74.58;98814.23;740566;1155;115386;-70
2022/04/05 20:01:28;;;;;;;48.50;19.47;;;;;;;5.15;74.95;98800.69;740780;1154;114947;-72
2022/04/05 20:31:53;;;;;;;15.28;5.83;;;;;;;5.48;74.88;98799.44;741087;1153;115276;-73
2022/04/05 20:46:55;;;;;;;8.05;3.78;;;;;;;5.72;74.76;98787.75;740311;1153;115500;-72
2022/04/05 21:01:58;;;;;;;6.93;3.60;;;;;;;5.72;75.14;98805.97;740413;1154;115102;-71
2022/04/05 21:17:01;;;;;;;6.67;3.17;;;;;;;5.53;77.40;98806.84;740381;1153;114379;-71
2022/04/05 21:32:06;;;;;;;5.50;2.70;;;;;;;5.38;78.40;98796.02;739624;1153;114244;-71
2022/04/05 21:47:11;;;;;;;8.98;2.90;;;;;;;5.20;80.89;98782.06;739986;1154;114084;-71
2022/04/05 22:02:15;;;;;;;4.83;2.30;;;;;;;5.11;81.70;98789.73;740429;1153;115011;-70
2022/04/05 22:17:17;;;;;;;5.28;2.08;;;;;;;5.07;83.67;98793.57;740235;1155;114950;-70
2022/04/05 22:32:19;;;;;;;3.55;1.75;;;;;;;4.94;84.20;98791.23;740108;1155;114960;-71
2022/04/05 22:47:21;;;;;;;3.28;1.93;;;;;;;4.87;85.49;98771.12;739532;1154;114447;-71
2022/04/05 23:02:24;;;;;;;8.78;2.25;;;;;;;4.75;85.35;98771.26;739932;1153;115160;-71
2022/04/05 23:17:26;;;;;;;4.13;2.20;;;;;;;4.67;88.02;98765.89;739752;1153;115063;-71
2022/04/05 23:32:28;;;;;;;4.10;1.90;;;;;;;4.56;88.95;98773.81;740209;1154;115325;-71
2022/04/05 23:47:31;;;;;;;4.75;2.63;;;;;;;4.56;89.28;98764.23;739246;1152;115402;-73
